sensor_id;sensor_type;location;lat;lon;timestamp;P1;durP1;ratioP1;P2;durP2;ratioP2
4634;SDS011;2330;48.158;11.816;2023-02-13T00:00:15;16.17;;;14.65;;
4634;SDS011;2330;48.158;11.816;2023-02-13T00:02:44;18.70;;;15.48;;
4634;SDS011;2330;48.158;11.816;2023-02-13T00:05:11;17.35;;;15.70;;
4634;SDS011;2330;48.158;11.816;2023-02-13T00:07:38;16.00;;;14.50;;
4634;SDS011;2330;48.158;11.816;2023-02-13T00:10:05;16.60;;;14.18;;
4634;SDS011;2330;48.158;11.816;2023-02-13T00:12:32;16.48;;;13.75;;
4634;SDS011;2330;48.158;11.816;2023-02-13T00:14:58;18.92;;;14.13;;
4634;SDS011;2330;48.158;11.816;2023-02-13T00:17:25;15.20;;;13.82;;
4634;SDS011;2330;48.158;11.816;2023-02-13T00:19:52;19.20;;;15.25;;
4634;SDS011;2330;48.158;11.816;2023-02-13T00:22:19;24.88;;;15.13;;
4634;SDS011;2330;48.158;11.816;2023-02-13T00:24:46;17.48;;;14.85;;
4634;SDS011;2330;48.158;11.816;2023-02-13T00:27:12;15.52;;;14.07;;
4634;SDS011;2330;48.158;11.816;2023-02-13T00:29:39;17.35;;;14.70;;
4634;SDS011;2330;48.158;11.816;2023-02-13T00:32:06;17.88;;;15.80;;
4634;SDS011;2330;48.158;11.816;2023-02-13T00:34:33;16.10;;;14.60;;
4634;SDS011;2330;48.158;11.816;2023-02-13T00:36:59;15.18;;;13.77;;
4634;SDS011;2330;48.158;11.816;2023-02-13T00:39:26;17.83;;;15.88;;
4634;SDS011;2330;48.158;11.816;2023-02-13T00:41:53;15.88;;;14.18;;
4634;SDS011;2330;48.158;11.816;2023-02-13T00:44:19;17.13;;;15.43;;
4634;SDS011;2330;48.158;11.816;2023-02-13T00:46:46;17.85;;;16.17;;
4634;SDS011;2330;48.158;11.816;2023-02-13T00:49:13;16.73;;;15.13;;
4634;SDS011;2330;48.158;11.816;2023-02-13T00:51:39;16.85;;;15.18;;
4634;SDS011;2330;48.158;11.816;2023-02-13T00:54:06;15.40;;;13.98;;
4634;SDS011;2330;48.158;11.816;2023-02-13T00:56:33;16.55;;;14.88;;
4634;SDS011;2330;48.158;11.816;2023-02-13T00:58:59;15.70;;;14.20;;
4634;SDS011;2330;48.158;11.816;2023-02-13T01:01:26;17.77;;;14.60;;
4634;SDS011;2330;48.158;11.816;2023-02-13T01:03:53;15.88;;;14.48;;
4634;SDS011;2330;48.158;11.816;2023-02-13T01:06:20;16.13;;;14.63;;
4634;SDS011;2330;48.158;11.816;2023-02-13T01:08:47;17.10;;;15.48;;
4634;SDS011;2330;48.158;11.816;2023-02-13T01:11:13;16.60;;;15.00;;
4634;SDS011;2330;48.158;11.816;2023-02-13T01:13:40;15.88;;;14.38;;
4634;SDS011;2330;48.158;11.816;2023-02-13T01:16:07;16.45;;;14.85;;
4634;SDS011;2330;48.158;11.816;2023-02-13T01:18:34;17.88;;;16.08;;
4634;SDS011;2330;48.158;11.816;2023-02-13T01:21:05;16.15;;;14.65;;
4634;SDS011;2330;48.158;11.816;2023-02-13T01:23:34;17.45;;;15.85;;
4634;SDS011;2330;48.158;11.816;2023-02-13T01:26:03;18.13;;;16.33;;
4634;SDS011;2330;48.158;11.816;2023-02-13T01:28:32;16.98;;;15.27;;
4634;SDS011;2330;48.158;11.816;2023-02-13T01:30:59;17.05;;;15.45;;
4634;SDS011;2330;48.158;11.816;2023-02-13T01:33:27;18.05;;;16.25;;
4634;SDS011;2330;48.158;11.816;2023-02-13T01:35:54;18.92;;;16.77;;
4634;SDS011;2330;48.158;11.816;2023-02-13T01:38:21;18.25;;;16.25;;
4634;SDS011;2330;48.158;11.816;2023-02-13T01:40:50;19.80;;;17.73;;
4634;SDS011;2330;48.158;11.816;2023-02-13T01:43:18;19.55;;;15.57;;
4634;SDS011;2330;48.158;11.816;2023-02-13T01:45:49;17.13;;;15.50;;
4634;SDS011;2330;48.158;11.816;2023-02-13T01:48:21;18.27;;;16.40;;
4634;SDS011;2330;48.158;11.816;2023-02-13T01:51:01;18.75;;;16.80;;
4634;SDS011;2330;48.158;11.816;2023-02-13T01:53:32;17.38;;;15.65;;
4634;SDS011;2330;48.158;11.816;2023-02-13T01:56:07;18.35;;;16.63;;
4634;SDS011;2330;48.158;11.816;2023-02-13T01:59:18;18.33;;;16.55;;
4634;SDS011;2330;48.158;11.816;2023-02-13T02:01:48;17.23;;;15.40;;
4634;SDS011;2330;48.158;11.816;2023-02-13T02:04:17;18.27;;;16.65;;
4634;SDS011;2330;48.158;11.816;2023-02-13T02:06:49;17.42;;;15.73;;
4634;SDS011;2330;48.158;11.816;2023-02-13T02:09:24;16.88;;;15.23;;
4634;SDS011;2330;48.158;11.816;2023-02-13T02:14:31;19.58;;;15.45;;
4634;SDS011;2330;48.158;11.816;2023-02-13T02:16:58;17.48;;;15.82;;
4634;SDS011;2330;48.158;11.816;2023-02-13T02:19:29;16.65;;;15.05;;
4634;SDS011;2330;48.158;11.816;2023-02-13T02:23:01;17.83;;;16.02;;
4634;SDS011;2330;48.158;11.816;2023-02-13T02:31:25;15.85;;;14.25;;
4634;SDS011;2330;48.158;11.816;2023-02-13T02:48:33;14.35;;;13.07;;
4634;SDS011;2330;48.158;11.816;2023-02-13T02:54:33;14.38;;;12.98;;
4634;SDS011;2330;48.158;11.816;2023-02-13T02:57:25;17.08;;;15.27;;
4634;SDS011;2330;48.158;11.816;2023-02-13T03:00:16;15.15;;;13.75;;
4634;SDS011;2330;48.158;11.816;2023-02-13T03:03:04;14.55;;;13.25;;
4634;SDS011;2330;48.158;11.816;2023-02-13T03:05:56;15.23;;;13.82;;
4634;SDS011;2330;48.158;11.816;2023-02-13T03:08:39;13.40;;;12.18;;
4634;SDS011;2330;48.158;11.816;2023-02-13T03:11:27;14.30;;;13.00;;
4634;SDS011;2330;48.158;11.816;2023-02-13T03:14:14;14.30;;;13.00;;
4634;SDS011;2330;48.158;11.816;2023-02-13T03:16:45;13.80;;;12.60;;
4634;SDS011;2330;48.158;11.816;2023-02-13T03:22:33;13.23;;;12.13;;
4634;SDS011;2330;48.158;11.816;2023-02-13T03:25:28;14.93;;;13.00;;
4634;SDS011;2330;48.158;11.816;2023-02-13T03:36:18;13.93;;;12.50;;
4634;SDS011;2330;48.158;11.816;2023-02-13T03:39:20;13.93;;;12.70;;
4634;SDS011;2330;48.158;11.816;2023-02-13T03:42:01;14.43;;;13.15;;
4634;SDS011;2330;48.158;11.816;2023-02-13T03:44:34;14.80;;;13.30;;
4634;SDS011;2330;48.158;11.816;2023-02-13T03:47:06;13.77;;;12.35;;
4634;SDS011;2330;48.158;11.816;2023-02-13T03:49:36;14.40;;;13.00;;
4634;SDS011;2330;48.158;11.816;2023-02-13T03:52:44;13.90;;;12.40;;
4634;SDS011;2330;48.158;11.816;2023-02-13T03:55:19;13.43;;;12.23;;
4634;SDS011;2330;48.158;11.816;2023-02-13T03:58:13;11.35;;;10.45;;
4634;SDS011;2330;48.158;11.816;2023-02-13T04:01:03;11.25;;;10.32;;
4634;SDS011;2330;48.158;11.816;2023-02-13T04:03:39;11.88;;;10.85;;
4634;SDS011;2330;48.158;11.816;2023-02-13T04:06:12;12.40;;;11.30;;
4634;SDS011;2330;48.158;11.816;2023-02-13T04:08:42;11.95;;;10.85;;
4634;SDS011;2330;48.158;11.816;2023-02-13T04:11:10;12.10;;;11.10;;
4634;SDS011;2330;48.158;11.816;2023-02-13T04:13:47;12.32;;;11.23;;
4634;SDS011;2330;48.158;11.816;2023-02-13T04:16:22;12.25;;;11.25;;
4634;SDS011;2330;48.158;11.816;2023-02-13T04:18:55;13.05;;;11.18;;
4634;SDS011;2330;48.158;11.816;2023-02-13T04:21:23;13.15;;;12.05;;
4634;SDS011;2330;48.158;11.816;2023-02-13T04:23:50;17.15;;;12.07;;
4634;SDS011;2330;48.158;11.816;2023-02-13T04:26:17;13.50;;;12.20;;
4634;SDS011;2330;48.158;11.816;2023-02-13T04:28:47;12.43;;;11.45;;
4634;SDS011;2330;48.158;11.816;2023-02-13T04:31:14;12.93;;;11.80;;
4634;SDS011;2330;48.158;11.816;2023-02-13T04:33:41;11.80;;;10.77;;
4634;SDS011;2330;48.158;11.816;2023-02-13T04:36:08;12.60;;;11.50;;
4634;SDS011;2330;48.158;11.816;2023-02-13T04:38:34;12.95;;;11.60;;
4634;SDS011;2330;48.158;11.816;2023-02-13T04:41:01;12.10;;;11.18;;
4634;SDS011;2330;48.158;11.816;2023-02-13T04:43:28;11.05;;;10.15;;
4634;SDS011;2330;48.158;11.816;2023-02-13T04:45:54;11.18;;;10.35;;
4634;SDS011;2330;48.158;11.816;2023-02-13T04:48:21;13.10;;;11.90;;
4634;SDS011;2330;48.158;11.816;2023-02-13T04:50:48;13.50;;;12.27;;
4634;SDS011;2330;48.158;11.816;2023-02-13T04:53:15;12.13;;;11.02;;
4634;SDS011;2330;48.158;11.816;2023-02-13T04:55:41;12.63;;;11.43;;
4634;SDS011;2330;48.158;11.816;2023-02-13T04:58:08;11.98;;;10.65;;
4634;SDS011;2330;48.158;11.816;2023-02-13T05:00:35;12.30;;;11.27;;
4634;SDS011;2330;48.158;11.816;2023-02-13T05:03:06;11.38;;;10.38;;
4634;SDS011;2330;48.158;11.816;2023-02-13T05:05:35;10.60;;;9.70;;
4634;SDS011;2330;48.158;11.816;2023-02-13T05:08:02;11.52;;;10.52;;
4634;SDS011;2330;48.158;11.816;2023-02-13T05:10:30;11.50;;;10.50;;
4634;SDS011;2330;48.158;11.816;2023-02-13T05:12:56;11.55;;;10.55;;
4634;SDS011;2330;48.158;11.816;2023-02-13T05:15:23;10.48;;;9.45;;
4634;SDS011;2330;48.158;11.816;2023-02-13T05:17:51;10.57;;;9.77;;
4634;SDS011;2330;48.158;11.816;2023-02-13T05:20:17;11.13;;;10.23;;
4634;SDS011;2330;48.158;11.816;2023-02-13T05:22:45;11.82;;;10.73;;
4634;SDS011;2330;48.158;11.816;2023-02-13T05:25:32;12.48;;;11.45;;
4634;SDS011;2330;48.158;11.816;2023-02-13T05:27:59;12.25;;;11.25;;
4634;SDS011;2330;48.158;11.816;2023-02-13T05:30:26;12.70;;;11.57;;
4634;SDS011;2330;48.158;11.816;2023-02-13T05:32:53;12.80;;;11.75;;
4634;SDS011;2330;48.158;11.816;2023-02-13T05:35:20;14.52;;;13.18;;
4634;SDS011;2330;48.158;11.816;2023-02-13T05:37:47;13.40;;;12.27;;
4634;SDS011;2330;48.158;11.816;2023-02-13T05:40:14;13.15;;;12.15;;
4634;SDS011;2330;48.158;11.816;2023-02-13T05:42:42;13.90;;;12.70;;
4634;SDS011;2330;48.158;11.816;2023-02-13T05:45:08;13.27;;;12.15;;
4634;SDS011;2330;48.158;11.816;2023-02-13T05:47:35;12.40;;;11.40;;
4634;SDS011;2330;48.158;11.816;2023-02-13T05:50:02;12.75;;;11.75;;
4634;SDS011;2330;48.158;11.816;2023-02-13T05:52:29;12.13;;;11.13;;
4634;SDS011;2330;48.158;11.816;2023-02-13T05:54:55;12.65;;;11.55;;
4634;SDS011;2330;48.158;11.816;2023-02-13T05:57:22;14.27;;;13.02;;
4634;SDS011;2330;48.158;11.816;2023-02-13T05:59:49;12.70;;;11.65;;
4634;SDS011;2330;48.158;11.816;2023-02-13T06:02:15;13.63;;;12.43;;
4634;SDS011;2330;48.158;11.816;2023-02-13T06:04:42;12.40;;;11.40;;
4634;SDS011;2330;48.158;11.816;2023-02-13T06:07:09;11.85;;;10.85;;
4634;SDS011;2330;48.158;11.816;2023-02-13T06:09:35;12.55;;;11.45;;
4634;SDS011;2330;48.158;11.816;2023-02-13T06:12:02;12.45;;;11.43;;
4634;SDS011;2330;48.158;11.816;2023-02-13T06:14:29;11.25;;;10.35;;
4634;SDS011;2330;48.158;11.816;2023-02-13T06:16:55;13.52;;;12.43;;
4634;SDS011;2330;48.158;11.816;2023-02-13T06:19:22;13.75;;;12.65;;
4634;SDS011;2330;48.158;11.816;2023-02-13T06:21:48;15.52;;;13.68;;
4634;SDS011;2330;48.158;11.816;2023-02-13T06:24:15;13.65;;;12.52;;
4634;SDS011;2330;48.158;11.816;2023-02-13T06:26:42;13.40;;;12.30;;
4634;SDS011;2330;48.158;11.816;2023-02-13T06:29:09;13.45;;;12.35;;
4634;SDS011;2330;48.158;11.816;2023-02-13T06:31:36;14.13;;;12.98;;
4634;SDS011;2330;48.158;11.816;2023-02-13T06:34:03;15.02;;;13.52;;
4634;SDS011;2330;48.158;11.816;2023-02-13T06:36:29;14.75;;;13.43;;
4634;SDS011;2330;48.158;11.816;2023-02-13T06:38:56;15.85;;;12.82;;
4634;SDS011;2330;48.158;11.816;2023-02-13T06:41:23;14.10;;;12.70;;
4634;SDS011;2330;48.158;11.816;2023-02-13T06:43:49;13.93;;;12.57;;
4634;SDS011;2330;48.158;11.816;2023-02-13T06:46:16;17.42;;;13.32;;
4634;SDS011;2330;48.158;11.816;2023-02-13T06:48:43;17.20;;;14.05;;
4634;SDS011;2330;48.158;11.816;2023-02-13T06:51:09;14.23;;;13.02;;
4634;SDS011;2330;48.158;11.816;2023-02-13T06:53:36;14.93;;;13.52;;
4634;SDS011;2330;48.158;11.816;2023-02-13T06:56:03;14.27;;;12.90;;
4634;SDS011;2330;48.158;11.816;2023-02-13T06:58:33;17.60;;;13.63;;
4634;SDS011;2330;48.158;11.816;2023-02-13T07:01:00;14.52;;;13.25;;
4634;SDS011;2330;48.158;11.816;2023-02-13T07:03:27;13.85;;;12.70;;
4634;SDS011;2330;48.158;11.816;2023-02-13T07:05:53;15.10;;;13.90;;
4634;SDS011;2330;48.158;11.816;2023-02-13T07:08:21;16.23;;;14.20;;
4634;SDS011;2330;48.158;11.816;2023-02-13T07:10:48;14.57;;;13.32;;
4634;SDS011;2330;48.158;11.816;2023-02-13T07:13:15;16.10;;;14.60;;
4634;SDS011;2330;48.158;11.816;2023-02-13T07:15:41;16.67;;;15.18;;
4634;SDS011;2330;48.158;11.816;2023-02-13T07:18:08;21.40;;;15.30;;
4634;SDS011;2330;48.158;11.816;2023-02-13T07:20:35;16.52;;;15.13;;
4634;SDS011;2330;48.158;11.816;2023-02-13T07:23:03;16.88;;;15.18;;
4634;SDS011;2330;48.158;11.816;2023-02-13T07:25:31;17.30;;;15.80;;
4634;SDS011;2330;48.158;11.816;2023-02-13T07:28:02;15.45;;;14.15;;
4634;SDS011;2330;48.158;11.816;2023-02-13T07:30:30;18.13;;;14.88;;
4634;SDS011;2330;48.158;11.816;2023-02-13T07:32:58;15.70;;;14.35;;
4634;SDS011;2330;48.158;11.816;2023-02-13T07:35:26;20.40;;;14.63;;
4634;SDS011;2330;48.158;11.816;2023-02-13T07:37:53;17.20;;;15.70;;
4634;SDS011;2330;48.158;11.816;2023-02-13T07:40:20;15.32;;;13.90;;
4634;SDS011;2330;48.158;11.816;2023-02-13T07:42:47;15.60;;;14.15;;
4634;SDS011;2330;48.158;11.816;2023-02-13T07:45:14;14.32;;;12.90;;
4634;SDS011;2330;48.158;11.816;2023-02-13T07:47:41;14.27;;;13.07;;
4634;SDS011;2330;48.158;11.816;2023-02-13T07:50:08;16.10;;;14.50;;
4634;SDS011;2330;48.158;11.816;2023-02-13T07:52:35;16.00;;;14.70;;
4634;SDS011;2330;48.158;11.816;2023-02-13T07:55:03;14.00;;;12.80;;
4634;SDS011;2330;48.158;11.816;2023-02-13T07:57:31;14.90;;;13.65;;
4634;SDS011;2330;48.158;11.816;2023-02-13T07:59:58;13.27;;;12.07;;
4634;SDS011;2330;48.158;11.816;2023-02-13T08:02:25;15.02;;;13.60;;
4634;SDS011;2330;48.158;11.816;2023-02-13T08:04:52;13.95;;;12.82;;
4634;SDS011;2330;48.158;11.816;2023-02-13T08:07:18;13.13;;;12.02;;
4634;SDS011;2330;48.158;11.816;2023-02-13T08:09:45;15.27;;;13.88;;
4634;SDS011;2330;48.158;11.816;2023-02-13T08:12:30;13.82;;;12.63;;
4634;SDS011;2330;48.158;11.816;2023-02-13T08:14:59;13.00;;;11.90;;
4634;SDS011;2330;48.158;11.816;2023-02-13T08:17:26;12.95;;;11.90;;
4634;SDS011;2330;48.158;11.816;2023-02-13T08:19:53;13.00;;;11.90;;
4634;SDS011;2330;48.158;11.816;2023-02-13T08:22:20;11.82;;;10.82;;
4634;SDS011;2330;48.158;11.816;2023-02-13T08:24:47;12.10;;;11.00;;
4634;SDS011;2330;48.158;11.816;2023-02-13T08:27:13;11.70;;;10.77;;
4634;SDS011;2330;48.158;11.816;2023-02-13T08:29:40;11.25;;;10.35;;
4634;SDS011;2330;48.158;11.816;2023-02-13T08:32:07;11.35;;;10.45;;
4634;SDS011;2330;48.158;11.816;2023-02-13T08:34:34;11.15;;;10.25;;
4634;SDS011;2330;48.158;11.816;2023-02-13T08:37:01;11.35;;;10.45;;
4634;SDS011;2330;48.158;11.816;2023-02-13T08:39:28;11.43;;;10.52;;
4634;SDS011;2330;48.158;11.816;2023-02-13T08:41:55;11.63;;;10.73;;
4634;SDS011;2330;48.158;11.816;2023-02-13T08:44:21;12.00;;;11.10;;
4634;SDS011;2330;48.158;11.816;2023-02-13T08:46:48;11.77;;;10.82;;
4634;SDS011;2330;48.158;11.816;2023-02-13T08:49:15;12.10;;;11.15;;
4634;SDS011;2330;48.158;11.816;2023-02-13T08:51:42;13.32;;;12.23;;
4634;SDS011;2330;48.158;11.816;2023-02-13T08:54:08;13.25;;;12.07;;
4634;SDS011;2330;48.158;11.816;2023-02-13T08:56:35;13.65;;;12.35;;
4634;SDS011;2330;48.158;11.816;2023-02-13T08:59:02;12.27;;;11.27;;
4634;SDS011;2330;48.158;11.816;2023-02-13T09:01:29;12.90;;;11.70;;
4634;SDS011;2330;48.158;11.816;2023-02-13T09:03:55;12.35;;;11.32;;
4634;SDS011;2330;48.158;11.816;2023-02-13T09:06:22;13.10;;;12.02;;
4634;SDS011;2330;48.158;11.816;2023-02-13T09:08:51;12.25;;;11.05;;
4634;SDS011;2330;48.158;11.816;2023-02-13T09:11:18;12.20;;;11.20;;
4634;SDS011;2330;48.158;11.816;2023-02-13T09:13:48;12.40;;;11.40;;
4634;SDS011;2330;48.158;11.816;2023-02-13T09:16:17;12.82;;;11.75;;
4634;SDS011;2330;48.158;11.816;2023-02-13T09:18:49;12.60;;;11.60;;
4634;SDS011;2330;48.158;11.816;2023-02-13T09:21:17;13.65;;;12.38;;
4634;SDS011;2330;48.158;11.816;2023-02-13T09:23:46;13.02;;;11.93;;
4634;SDS011;2330;48.158;11.816;2023-02-13T09:26:13;13.23;;;12.15;;
4634;SDS011;2330;48.158;11.816;2023-02-13T09:28:40;10.98;;;10.18;;
4634;SDS011;2330;48.158;11.816;2023-02-13T09:31:09;13.32;;;12.23;;
4634;SDS011;2330;48.158;11.816;2023-02-13T09:33:38;13.95;;;12.75;;
4634;SDS011;2330;48.158;11.816;2023-02-13T09:36:05;13.65;;;12.38;;
4634;SDS011;2330;48.158;11.816;2023-02-13T09:38:33;13.25;;;12.15;;
4634;SDS011;2330;48.158;11.816;2023-02-13T09:41:01;14.02;;;12.77;;
4634;SDS011;2330;48.158;11.816;2023-02-13T09:43:48;14.32;;;13.15;;
4634;SDS011;2330;48.158;11.816;2023-02-13T09:46:20;14.15;;;12.85;;
4634;SDS011;2330;48.158;11.816;2023-02-13T09:48:54;13.57;;;12.32;;
4634;SDS011;2330;48.158;11.816;2023-02-13T09:51:24;15.70;;;14.30;;
4634;SDS011;2330;48.158;11.816;2023-02-13T09:53:57;14.63;;;13.40;;
4634;SDS011;2330;48.158;11.816;2023-02-13T10:10:43;11.25;;;10.45;;
4634;SDS011;2330;48.158;11.816;2023-02-13T10:13:31;14.15;;;12.95;;
4634;SDS011;2330;48.158;11.816;2023-02-13T10:16:16;13.35;;;12.18;;
4634;SDS011;2330;48.158;11.816;2023-02-13T10:21:26;14.07;;;12.77;;
4634;SDS011;2330;48.158;11.816;2023-02-13T10:24:27;13.90;;;12.63;;
4634;SDS011;2330;48.158;11.816;2023-02-13T10:27:08;13.85;;;12.65;;
4634;SDS011;2330;48.158;11.816;2023-02-13T10:29:50;14.95;;;13.60;;
4634;SDS011;2330;48.158;11.816;2023-02-13T10:35:20;13.70;;;12.60;;
4634;SDS011;2330;48.158;11.816;2023-02-13T10:37:54;12.85;;;11.45;;
4634;SDS011;2330;48.158;11.816;2023-02-13T10:40:27;10.85;;;10.05;;
4634;SDS011;2330;48.158;11.816;2023-02-13T10:43:17;11.68;;;10.70;;
4634;SDS011;2330;48.158;11.816;2023-02-13T10:48:55;12.52;;;11.48;;
4634;SDS011;2330;48.158;11.816;2023-02-13T10:51:44;12.32;;;11.23;;
4634;SDS011;2330;48.158;11.816;2023-02-13T10:57:14;12.82;;;11.80;;
4634;SDS011;2330;48.158;11.816;2023-02-13T10:59:48;13.55;;;12.45;;
4634;SDS011;2330;48.158;11.816;2023-02-13T11:02:22;13.02;;;11.93;;
4634;SDS011;2330;48.158;11.816;2023-02-13T11:04:52;13.50;;;12.35;;
4634;SDS011;2330;48.158;11.816;2023-02-13T11:07:27;13.55;;;12.25;;
4634;SDS011;2330;48.158;11.816;2023-02-13T11:09:57;14.80;;;13.60;;
4634;SDS011;2330;48.158;11.816;2023-02-13T11:12:32;12.43;;;11.43;;
4634;SDS011;2330;48.158;11.816;2023-02-13T11:15:01;12.25;;;11.27;;
4634;SDS011;2330;48.158;11.816;2023-02-13T11:17:33;13.10;;;12.00;;
4634;SDS011;2330;48.158;11.816;2023-02-13T11:20:22;12.23;;;11.23;;
4634;SDS011;2330;48.158;11.816;2023-02-13T11:28:46;11.77;;;10.80;;
4634;SDS011;2330;48.158;11.816;2023-02-13T11:33:49;11.05;;;9.95;;
4634;SDS011;2330;48.158;11.816;2023-02-13T11:36:26;12.10;;;11.20;;
4634;SDS011;2330;48.158;11.816;2023-02-13T11:39:02;12.48;;;11.38;;
4634;SDS011;2330;48.158;11.816;2023-02-13T11:41:38;11.50;;;10.60;;
4634;SDS011;2330;48.158;11.816;2023-02-13T11:44:17;11.48;;;10.57;;
4634;SDS011;2330;48.158;11.816;2023-02-13T11:46:49;12.25;;;11.20;;
4634;SDS011;2330;48.158;11.816;2023-02-13T11:49:19;12.45;;;11.45;;
4634;SDS011;2330;48.158;11.816;2023-02-13T11:56:56;10.75;;;9.80;;
4634;SDS011;2330;48.158;11.816;2023-02-13T11:59:44;11.13;;;10.23;;
4634;SDS011;2330;48.158;11.816;2023-02-13T12:02:20;11.93;;;10.82;;
4634;SDS011;2330;48.158;11.816;2023-02-13T12:07:48;12.60;;;11.65;;
4634;SDS011;2330;48.158;11.816;2023-02-13T12:10:49;12.07;;;11.05;;
4634;SDS011;2330;48.158;11.816;2023-02-13T12:15:57;11.43;;;10.52;;
4634;SDS011;2330;48.158;11.816;2023-02-13T12:18:33;13.32;;;12.23;;
4634;SDS011;2330;48.158;11.816;2023-02-13T12:26:32;13.07;;;11.93;;
4634;SDS011;2330;48.158;11.816;2023-02-13T12:29:23;11.63;;;10.73;;
4634;SDS011;2330;48.158;11.816;2023-02-13T12:35:03;12.30;;;11.30;;
4634;SDS011;2330;48.158;11.816;2023-02-13T12:38:03;14.07;;;12.90;;
4634;SDS011;2330;48.158;11.816;2023-02-13T12:41:24;13.52;;;12.32;;
4634;SDS011;2330;48.158;11.816;2023-02-13T12:46:25;13.32;;;12.23;;
4634;SDS011;2330;48.158;11.816;2023-02-13T13:08:57;13.98;;;12.77;;
4634;SDS011;2330;48.158;11.816;2023-02-13T13:12:20;12.63;;;11.55;;
4634;SDS011;2330;48.158;11.816;2023-02-13T13:15:04;13.30;;;12.20;;
4634;SDS011;2330;48.158;11.816;2023-02-13T13:17:42;14.20;;;12.75;;
4634;SDS011;2330;48.158;11.816;2023-02-13T13:23:15;14.63;;;13.43;;
4634;SDS011;2330;48.158;11.816;2023-02-13T13:26:03;14.43;;;13.13;;
4634;SDS011;2330;48.158;11.816;2023-02-13T13:28:38;13.30;;;12.15;;
4634;SDS011;2330;48.158;11.816;2023-02-13T13:31:08;13.52;;;12.32;;
4634;SDS011;2330;48.158;11.816;2023-02-13T13:33:38;14.32;;;13.07;;
4634;SDS011;2330;48.158;11.816;2023-02-13T13:44:47;15.45;;;14.15;;
4634;SDS011;2330;48.158;11.816;2023-02-13T13:50:21;15.35;;;14.05;;
4634;SDS011;2330;48.158;11.816;2023-02-13T13:53:06;19.45;;;17.77;;
4634;SDS011;2330;48.158;11.816;2023-02-13T13:55:57;15.60;;;14.30;;
4634;SDS011;2330;48.158;11.816;2023-02-13T13:58:32;15.52;;;14.13;;
4634;SDS011;2330;48.158;11.816;2023-02-13T14:03:41;14.93;;;13.57;;
4634;SDS011;2330;48.158;11.816;2023-02-13T14:06:10;14.10;;;12.90;;
4634;SDS011;2330;48.158;11.816;2023-02-13T14:11:06;15.23;;;13.75;;
4634;SDS011;2330;48.158;11.816;2023-02-13T14:16:54;14.65;;;13.35;;
4634;SDS011;2330;48.158;11.816;2023-02-13T14:19:36;15.02;;;13.73;;
4634;SDS011;2330;48.158;11.816;2023-02-13T14:24:51;14.57;;;13.30;;
4634;SDS011;2330;48.158;11.816;2023-02-13T14:27:23;14.60;;;13.30;;
4634;SDS011;2330;48.158;11.816;2023-02-13T14:29:56;14.95;;;13.65;;
4634;SDS011;2330;48.158;11.816;2023-02-13T14:34:59;14.70;;;13.50;;
4634;SDS011;2330;48.158;11.816;2023-02-13T14:37:48;14.40;;;13.20;;
4634;SDS011;2330;48.158;11.816;2023-02-13T14:42:59;14.43;;;13.23;;
4634;SDS011;2330;48.158;11.816;2023-02-13T14:45:32;13.38;;;12.27;;
4634;SDS011;2330;48.158;11.816;2023-02-13T14:48:06;13.40;;;12.20;;
4634;SDS011;2330;48.158;11.816;2023-02-13T14:50:45;13.45;;;12.35;;
4634;SDS011;2330;48.158;11.816;2023-02-13T14:53:20;13.35;;;12.25;;
4634;SDS011;2330;48.158;11.816;2023-02-13T14:55:53;15.27;;;13.98;;
4634;SDS011;2330;48.158;11.816;2023-02-13T14:58:29;14.95;;;13.65;;
4634;SDS011;2330;48.158;11.816;2023-02-13T15:01:46;15.00;;;13.80;;
4634;SDS011;2330;48.158;11.816;2023-02-13T15:06:41;13.68;;;12.48;;
4634;SDS011;2330;48.158;11.816;2023-02-13T15:11:46;17.50;;;16.00;;
4634;SDS011;2330;48.158;11.816;2023-02-13T15:16:42;13.23;;;12.13;;
4634;SDS011;2330;48.158;11.816;2023-02-13T15:19:14;15.15;;;13.57;;
4634;SDS011;2330;48.158;11.816;2023-02-13T15:21:50;14.65;;;12.57;;
4634;SDS011;2330;48.158;11.816;2023-02-13T15:24:20;14.10;;;12.90;;
4634;SDS011;2330;48.158;11.816;2023-02-13T15:27:01;13.88;;;12.68;;
4634;SDS011;2330;48.158;11.816;2023-02-13T15:29:29;14.43;;;13.02;;
4634;SDS011;2330;48.158;11.816;2023-02-13T15:32:18;13.88;;;12.73;;
4634;SDS011;2330;48.158;11.816;2023-02-13T15:34:46;14.48;;;13.20;;
4634;SDS011;2330;48.158;11.816;2023-02-13T15:37:20;14.63;;;13.32;;
4634;SDS011;2330;48.158;11.816;2023-02-13T15:39:49;14.43;;;13.32;;
4634;SDS011;2330;48.158;11.816;2023-02-13T15:42:15;12.95;;;11.85;;
4634;SDS011;2330;48.158;11.816;2023-02-13T15:44:43;14.40;;;13.07;;
4634;SDS011;2330;48.158;11.816;2023-02-13T15:47:16;12.90;;;11.80;;
4634;SDS011;2330;48.158;11.816;2023-02-13T15:50:02;12.57;;;11.65;;
4634;SDS011;2330;48.158;11.816;2023-02-13T15:52:30;13.20;;;12.05;;
4634;SDS011;2330;48.158;11.816;2023-02-13T15:55:01;13.80;;;12.65;;
4634;SDS011;2330;48.158;11.816;2023-02-13T15:57:28;13.57;;;12.48;;
4634;SDS011;2330;48.158;11.816;2023-02-13T15:59:56;13.60;;;12.48;;
4634;SDS011;2330;48.158;11.816;2023-02-13T16:02:39;13.45;;;12.15;;
4634;SDS011;2330;48.158;11.816;2023-02-13T16:05:10;14.70;;;13.27;;
4634;SDS011;2330;48.158;11.816;2023-02-13T16:07:46;14.02;;;12.80;;
4634;SDS011;2330;48.158;11.816;2023-02-13T16:12:57;15.60;;;14.20;;
4634;SDS011;2330;48.158;11.816;2023-02-13T16:15:27;15.13;;;13.93;;
4634;SDS011;2330;48.158;11.816;2023-02-13T16:17:56;15.15;;;13.85;;
4634;SDS011;2330;48.158;11.816;2023-02-13T16:20:25;13.88;;;12.68;;
4634;SDS011;2330;48.158;11.816;2023-02-13T16:23:01;12.43;;;11.43;;
4634;SDS011;2330;48.158;11.816;2023-02-13T16:25:39;12.73;;;11.65;;
4634;SDS011;2330;48.158;11.816;2023-02-13T16:28:20;13.57;;;12.48;;
4634;SDS011;2330;48.158;11.816;2023-02-13T16:30:59;14.38;;;13.13;;
4634;SDS011;2330;48.158;11.816;2023-02-13T16:35:58;15.60;;;14.30;;
4634;SDS011;2330;48.158;11.816;2023-02-13T16:38:45;13.75;;;12.55;;
4634;SDS011;2330;48.158;11.816;2023-02-13T16:43:59;12.90;;;11.80;;
4634;SDS011;2330;48.158;11.816;2023-02-13T16:51:37;15.23;;;13.85;;
4634;SDS011;2330;48.158;11.816;2023-02-13T16:56:47;13.35;;;12.25;;
4634;SDS011;2330;48.158;11.816;2023-02-13T17:05:14;14.32;;;13.13;;
4634;SDS011;2330;48.158;11.816;2023-02-13T17:07:46;15.10;;;13.77;;
4634;SDS011;2330;48.158;11.816;2023-02-13T17:10:27;14.98;;;13.80;;
4634;SDS011;2330;48.158;11.816;2023-02-13T17:12:57;14.98;;;13.70;;
4634;SDS011;2330;48.158;11.816;2023-02-13T17:15:30;14.55;;;13.35;;
4634;SDS011;2330;48.158;11.816;2023-02-13T17:17:57;14.20;;;13.00;;
4634;SDS011;2330;48.158;11.816;2023-02-13T17:20:31;15.38;;;14.07;;
4634;SDS011;2330;48.158;11.816;2023-02-13T17:23:00;14.60;;;13.35;;
4634;SDS011;2330;48.158;11.816;2023-02-13T17:25:29;15.30;;;14.00;;
4634;SDS011;2330;48.158;11.816;2023-02-13T17:27:58;17.00;;;15.50;;
4634;SDS011;2330;48.158;11.816;2023-02-13T17:30:31;16.70;;;15.30;;
4634;SDS011;2330;48.158;11.816;2023-02-13T17:33:03;17.13;;;15.63;;
4634;SDS011;2330;48.158;11.816;2023-02-13T17:35:33;15.93;;;14.52;;
4634;SDS011;2330;48.158;11.816;2023-02-13T17:38:00;22.67;;;20.67;;
4634;SDS011;2330;48.158;11.816;2023-02-13T17:40:27;19.63;;;17.80;;
4634;SDS011;2330;48.158;11.816;2023-02-13T17:42:57;18.05;;;16.35;;
4634;SDS011;2330;48.158;11.816;2023-02-13T17:45:27;16.77;;;15.27;;
4634;SDS011;2330;48.158;11.816;2023-02-13T17:47:55;16.15;;;14.75;;
4634;SDS011;2330;48.158;11.816;2023-02-13T17:50:25;16.50;;;15.20;;
4634;SDS011;2330;48.158;11.816;2023-02-13T17:52:53;18.70;;;17.10;;
4634;SDS011;2330;48.158;11.816;2023-02-13T17:55:21;16.20;;;14.88;;
4634;SDS011;2330;48.158;11.816;2023-02-13T17:57:54;18.25;;;16.60;;